Time;durP1;ratioP1;P1;durP2;ratioP2;P2;SDS_P1;SDS_P2;PMS_P1;PMS_P2;Temp;Humidity;BMP_temperature;BMP_pressure;BME280_temperature;BME280_humidity;BME280_pressure;Samples;Min_cycle;Max_cycle;Signal;HPM_P1;HPM_P2
2023/01/23 00:02:15;;;;;;;53.72;26.58;;;;;;;-3.45;100.00;102248.44;5083715;28;20519;-70
2023/01/23 00:04:41;;;;;;;56.00;28.23;;;;;;;-3.49;100.00;102250.59;5072292;28;20383;-70
2023/01/23 00:07:06;;;;;;;52.55;27.92;;;;;;;-3.50;100.00;102257.06;5084550;28;20711;-70
2023/01/23 00:09:32;;;;;;;51.88;26.90;;;;;;;-3.52;100.00;102259.06;5046666;28;20020;-70
2023/01/23 00:11:57;;;;;;;49.92;25.73;;;;;;;-3.47;100.00;102264.03;5087939;28;20036;-70
2023/01/23 00:14:23;;;;;;;58.35;29.42;;;;;;;-3.52;100.00;102259.06;5083418;28;20032;-70
2023/01/23 00:16:48;;;;;;;51.05;26.48;;;;;;;-3.48;100.00;102256.88;5058823;28;20028;-69
2023/01/23 00:19:14;;;;;;;52.17;25.95;;;;;;;-3.47;100.00;102251.28;5094829;28;20112;-70
2023/01/23 00:21:39;;;;;;;55.15;26.63;;;;;;;-3.46;100.00;102242.13;5044723;28;20016;-70
2023/01/23 00:24:05;;;;;;;55.33;26.73;;;;;;;-3.44;100.00;102241.97;5038845;28;20063;-70
2023/01/23 00:26:34;;;;;;;51.65;24.92;;;;;;;-3.38;100.00;102249.47;5079346;28;20571;-70
2023/01/23 00:29:00;;;;;;;53.85;26.40;;;;;;;-3.42;100.00;102251.69;5059916;28;20031;-70
2023/01/23 00:31:29;;;;;;;52.70;25.25;;;;;;;-3.41;100.00;102256.09;5063108;28;20495;-70
2023/01/23 00:33:59;;;;;;;50.47;24.48;;;;;;;-3.43;100.00;102247.22;5067622;28;20102;-70
2023/01/23 00:36:29;;;;;;;53.20;25.85;;;;;;;-3.43;100.00;102236.38;5090723;28;20023;-70
2023/01/23 00:38:55;;;;;;;49.40;23.33;;;;;;;-3.45;100.00;102235.69;5082167;28;20459;-70
2023/01/23 00:41:20;;;;;;;46.40;23.17;;;;;;;-3.44;100.00;102233.84;5083021;28;20023;-70
2023/01/23 00:43:47;;;;;;;48.35;23.67;;;;;;;-3.46;100.00;102247.56;5055005;28;20028;-70
2023/01/23 00:46:13;;;;;;;48.03;23.63;;;;;;;-3.47;100.00;102243.16;5079708;28;20034;-70
2023/01/23 00:48:38;;;;;;;47.38;22.65;;;;;;;-3.47;100.00;102245.88;5060620;28;20383;-70
2023/01/23 00:51:04;;;;;;;52.75;25.10;;;;;;;-3.48;100.00;102238.75;5040603;28;20036;-70
2023/01/23 00:53:30;;;;;;;47.45;23.92;;;;;;;-3.49;100.00;102245.16;5084810;28;20118;-70
2023/01/23 00:55:55;;;;;;;46.33;22.75;;;;;;;-3.51;100.00;102247.22;5110371;28;20028;-70
2023/01/23 00:58:21;;;;;;;48.13;23.25;;;;;;;-3.60;100.00;102243.56;5079179;28;20024;-70
2023/01/23 01:00:46;;;;;;;44.53;22.75;;;;;;;-3.57;100.00;102247.81;5083946;28;20032;-70
2023/01/23 01:03:12;;;;;;;48.22;25.02;;;;;;;-3.57;100.00;102247.81;5046748;28;20039;-70
2023/01/23 01:05:37;;;;;;;49.35;23.42;;;;;;;-3.59;100.00;102249.88;5058402;28;20032;-70
2023/01/23 01:08:03;;;;;;;46.42;23.58;;;;;;;-3.58;100.00;102256.13;5096249;28;20031;-69
2023/01/23 01:10:30;;;;;;;48.85;24.70;;;;;;;-3.61;100.00;102254.59;5083542;28;20024;-70
2023/01/23 01:12:56;;;;;;;51.63;25.10;;;;;;;-3.63;100.00;102260.16;5062327;28;20070;-70
2023/01/23 01:15:21;;;;;;;48.85;23.15;;;;;;;-3.57;100.00;102257.84;5083509;28;20024;-70
2023/01/23 01:17:47;;;;;;;49.00;23.83;;;;;;;-3.62;100.00;102259.19;5109301;28;20045;-70
2023/01/23 01:20:13;;;;;;;48.10;23.38;;;;;;;-3.65;100.00;102258.63;5083917;28;20024;-70
2023/01/23 01:22:38;;;;;;;53.05;24.25;;;;;;;-3.62;100.00;102255.63;5080592;28;20039;-70
2023/01/23 01:25:04;;;;;;;45.05;23.20;;;;;;;-3.65;100.00;102253.19;5082427;28;20361;-70
2023/01/23 01:27:29;;;;;;;49.30;24.75;;;;;;;-3.67;100.00;102260.66;5092302;28;20083;-70
2023/01/23 01:29:55;;;;;;;45.53;22.55;;;;;;;-3.70;100.00;102256.41;5095979;28;20028;-70
2023/01/23 01:32:20;;;;;;;52.47;25.25;;;;;;;-3.68;100.00;102258.94;5062563;28;20028;-70
2023/01/23 01:34:46;;;;;;;43.17;22.95;;;;;;;-3.70;100.00;102253.69;5081953;28;20023;-70
2023/01/23 01:37:11;;;;;;;45.28;23.05;;;;;;;-3.73;100.00;102242.25;5064624;28;20048;-70
2023/01/23 01:39:37;;;;;;;49.58;24.20;;;;;;;-3.72;100.00;102252.13;5096439;28;20031;-70
2023/01/23 01:42:02;;;;;;;49.72;23.73;;;;;;;-3.74;100.00;102248.72;5072322;28;20032;-70
2023/01/23 01:44:49;;;;;;;45.28;23.27;;;;;;;-3.77;100.00;102246.31;5060860;28;20031;-70
2023/01/23 01:47:15;;;;;;;45.92;22.42;;;;;;;-3.77;100.00;102243.59;5067754;28;20058;-70
2023/01/23 01:49:40;;;;;;;43.70;23.88;;;;;;;-3.79;100.00;102245.59;5096541;28;20501;-70
2023/01/23 01:52:07;;;;;;;47.47;23.52;;;;;;;-3.83;100.00;102235.06;5060948;28;20431;-70
2023/01/23 01:54:39;;;;;;;44.38;22.73;;;;;;;-3.84;100.00;102256.97;5081551;28;20080;-70
2023/01/23 01:57:10;;;;;;;45.47;23.80;;;;;;;-3.86;100.00;102239.97;5080486;28;20054;-70
2023/01/23 02:00:09;;;;;;;48.73;23.53;;;;;;;-3.88;100.00;102245.53;5077542;28;20047;-70
2023/01/23 02:02:48;;;;;;;48.53;22.60;;;;;;;-3.89;100.00;102254.69;5051729;28;20400;-70
2023/01/23 02:05:27;;;;;;;48.45;22.65;;;;;;;-3.89;100.00;102248.44;5091959;28;20388;-69
2023/01/23 02:07:55;;;;;;;44.00;22.63;;;;;;;-3.90;100.00;102239.44;5084767;28;20062;-70
2023/01/23 02:10:21;;;;;;;44.38;23.00;;;;;;;-3.90;100.00;102242.16;5081485;28;20016;-70
2023/01/23 02:12:47;;;;;;;45.03;22.35;;;;;;;-3.91;100.00;102245.84;5058381;28;20423;-70
2023/01/23 02:15:13;;;;;;;43.45;22.27;;;;;;;-3.93;100.00;102242.47;5056958;28;20496;-70
2023/01/23 02:17:39;;;;;;;41.22;21.50;;;;;;;-3.95;100.00;102246.34;5099504;28;20050;-70
2023/01/23 02:20:25;;;;;;;47.67;22.38;;;;;;;-3.98;100.00;102255.66;5065616;28;20024;-70
2023/01/23 02:23:12;;;;;;;42.15;21.55;;;;;;;-4.00;100.00;102257.66;5060868;28;20492;-70
2023/01/23 02:25:44;;;;;;;47.42;22.27;;;;;;;-4.01;100.00;102253.25;5094768;28;20127;-69
2023/01/23 02:28:14;;;;;;;46.55;22.83;;;;;;;-4.01;100.00;102249.66;5077431;28;20035;-70
2023/01/23 02:30:41;;;;;;;45.78;22.00;;;;;;;-4.03;100.00;102246.28;5070175;28;20447;-69
2023/01/23 02:33:08;;;;;;;47.03;22.60;;;;;;;-4.03;100.00;102238.13;5047655;28;20023;-70
2023/01/23 02:35:34;;;;;;;47.38;22.35;;;;;;;-4.06;100.00;102244.72;5080644;28;20031;-70
2023/01/23 02:38:01;;;;;;;44.03;22.48;;;;;;;-4.08;100.00;102236.72;5077302;28;20044;-70
2023/01/23 02:40:35;;;;;;;46.38;22.25;;;;;;;-4.11;100.00;102231.59;5094032;28;20032;-70
2023/01/23 02:43:03;;;;;;;50.35;23.65;;;;;;;-4.10;100.00;102235.16;5085775;28;20035;-70
2023/01/23 02:45:28;;;;;;;49.22;22.92;;;;;;;-4.11;100.00;102238.91;5113486;28;20030;-70
2023/01/23 02:47:54;;;;;;;51.53;22.27;;;;;;;-4.14;100.00;102242.78;5095614;28;20024;-70
2023/01/23 02:50:19;;;;;;;51.20;23.33;;;;;;;-4.13;100.00;102244.47;5095503;28;20366;-70
2023/01/23 02:52:46;;;;;;;49.92;23.50;;;;;;;-4.14;100.00;102241.91;5083862;28;20480;-70
2023/01/23 02:55:11;;;;;;;49.08;23.55;;;;;;;-4.14;100.00;102244.63;5063345;28;20036;-70
2023/01/23 02:57:36;;;;;;;50.10;23.88;;;;;;;-4.16;100.00;102249.34;5097238;28;20038;-70
2023/01/23 03:00:14;;;;;;;49.33;23.75;;;;;;;-4.15;100.00;102256.47;5079548;28;20111;-70
2023/01/23 03:02:40;;;;;;;57.67;25.38;;;;;;;-4.18;100.00;102251.38;5055037;28;20028;-70
2023/01/23 03:05:06;;;;;;;54.75;23.88;;;;;;;-4.18;100.00;102249.53;5091152;28;20035;-70
2023/01/23 03:07:31;;;;;;;52.95;23.75;;;;;;;-4.14;100.00;102255.50;5038168;28;20028;-70
2023/01/23 03:09:57;;;;;;;49.15;23.52;;;;;;;-4.17;100.00;102258.50;5066570;28;20023;-70
2023/01/23 03:12:22;;;;;;;53.72;24.08;;;;;;;-4.15;100.00;102267.34;5086065;28;20062;-70
2023/01/23 03:14:53;;;;;;;52.92;24.05;;;;;;;-4.16;100.00;102260.22;5073907;28;20035;-69
2023/01/23 03:17:18;;;;;;;49.00;23.83;;;;;;;-4.17;100.00;102264.78;5064361;28;20452;-69
2023/01/23 03:19:44;;;;;;;49.53;23.33;;;;;;;-4.16;100.00;102262.91;5058920;28;20060;-70
2023/01/23 03:22:09;;;;;;;52.88;24.55;;;;;;;-4.16;100.00;102257.50;5081284;28;20043;-70
2023/01/23 03:24:34;;;;;;;51.38;27.90;;;;;;;-4.18;100.00;102260.38;5056212;28;20036;-70
2023/01/23 03:27:00;;;;;;;56.65;26.50;;;;;;;-4.19;100.00;102245.09;5076863;28;20039;-70
2023/01/23 03:32:10;;;;;;;57.10;27.15;;;;;;;-4.21;100.00;102252.53;5074683;28;20119;-70
2023/01/23 03:34:36;;;;;;;52.17;26.77;;;;;;;-4.23;100.00;102240.13;5087927;28;20039;-70
2023/01/23 03:37:02;;;;;;;53.25;26.77;;;;;;;-4.23;100.00;102242.81;5081010;28;20070;-70
2023/01/23 03:42:12;;;;;;;49.50;23.92;;;;;;;-4.24;100.00;102241.13;5082394;28;20540;-70
2023/01/23 03:44:37;;;;;;;48.83;23.90;;;;;;;-4.27;100.00;102248.56;5079862;28;20147;-70
2023/01/23 03:47:03;;;;;;;46.67;23.95;;;;;;;-4.26;100.00;102249.44;5082011;28;20032;-70
2023/01/23 03:49:28;;;;;;;49.40;24.20;;;;;;;-4.31;100.00;102252.59;5085609;28;20028;-70
2023/01/23 03:51:54;;;;;;;46.80;22.92;;;;;;;-4.32;100.00;102255.47;5031658;28;20066;-70
2023/01/23 03:54:19;;;;;;;52.13;24.65;;;;;;;-4.33;100.00;102249.19;5095410;28;20035;-70
2023/01/23 03:56:45;;;;;;;46.47;22.85;;;;;;;-4.36;100.00;102245.94;5064662;28;20250;-70
2023/01/23 03:59:10;;;;;;;46.22;22.83;;;;;;;-4.38;100.00;102251.50;5081711;28;20028;-70
2023/01/23 04:01:36;;;;;;;43.50;22.35;;;;;;;-4.36;100.00;102264.94;5076687;28;20032;-70
2023/01/23 04:04:02;;;;;;;48.28;24.13;;;;;;;-4.36;100.00;102260.34;5064986;28;20031;-69
2023/01/23 04:06:28;;;;;;;46.88;23.20;;;;;;;-4.42;100.00;102244.69;5047986;28;20057;-69
2023/01/23 04:08:53;;;;;;;47.83;23.38;;;;;;;-4.45;100.00;102244.16;5084494;28;20031;-70
2023/01/23 04:11:19;;;;;;;43.78;21.17;;;;;;;-4.41;100.00;102251.81;5099547;28;20039;-70
2023/01/23 04:13:45;;;;;;;44.35;22.50;;;;;;;-4.44;100.00;102252.13;5051692;28;20531;-70
2023/01/23 04:16:11;;;;;;;43.15;21.60;;;;;;;-4.45;100.00;102258.56;5066851;28;20393;-70
2023/01/23 04:18:36;;;;;;;41.05;21.40;;;;;;;-4.47;100.00;102248.88;5063054;28;20032;-70
2023/01/23 04:21:02;;;;;;;42.30;21.38;;;;;;;-4.47;100.00;102244.28;5078632;28;20085;-70
2023/01/23 04:23:27;;;;;;;47.22;22.15;;;;;;;-4.50;100.00;102241.88;5062994;28;20392;-70
2023/01/23 04:25:53;;;;;;;43.45;21.05;;;;;;;-4.51;100.00;102248.34;5059783;28;20027;-70
2023/01/23 04:28:19;;;;;;;45.90;22.38;;;;;;;-4.55;100.00;102238.78;5076422;28;20036;-70
2023/01/23 04:30:44;;;;;;;43.22;22.02;;;;;;;-4.56;100.00;102234.38;5056765;28;20472;-70
2023/01/23 04:33:10;;;;;;;38.85;20.75;;;;;;;-4.55;100.00;102236.06;5079915;28;20107;-70
2023/01/23 04:35:35;;;;;;;46.92;22.25;;;;;;;-4.58;100.00;102236.38;5060139;28;20766;-70
2023/01/23 04:38:01;;;;;;;40.90;21.40;;;;;;;-4.59;100.00;102246.38;5067187;28;20401;-70
2023/01/23 04:40:27;;;;;;;43.85;20.02;;;;;;;-4.60;100.00;102239.22;5093117;28;20031;-70
2023/01/23 04:42:52;;;;;;;45.35;22.10;;;;;;;-4.62;100.00;102243.13;5083821;28;20119;-70
2023/01/23 04:45:18;;;;;;;41.30;20.23;;;;;;;-4.63;100.00;102247.66;5078398;28;20031;-70
2023/01/23 04:47:43;;;;;;;40.55;20.55;;;;;;;-4.63;100.00;102249.53;5066961;28;20028;-70
2023/01/23 04:50:09;;;;;;;44.85;21.27;;;;;;;-4.65;100.00;102248.81;5082445;28;20030;-70
2023/01/23 04:52:34;;;;;;;41.90;21.73;;;;;;;-4.63;100.00;102257.66;5080424;28;20111;-70
2023/01/23 04:55:00;;;;;;;40.22;20.65;;;;;;;-4.68;100.00;102239.16;5055772;28;20507;-70
2023/01/23 04:57:25;;;;;;;41.08;21.10;;;;;;;-4.67;100.00;102246.28;5075329;28;20032;-70
2023/01/23 04:59:51;;;;;;;41.35;21.00;;;;;;;-4.66;100.00;102241.69;5089877;28;20031;-70
2023/01/23 05:02:16;;;;;;;38.22;19.65;;;;;;;-4.68;100.00;102249.13;5096275;28;20040;-70
2023/01/23 05:04:42;;;;;;;38.63;20.05;;;;;;;-4.70;100.00;102240.31;5087925;28;20035;-70
2023/01/23 05:07:10;;;;;;;39.67;20.05;;;;;;;-4.73;100.00;102247.72;5049764;28;20049;-70
2023/01/23 05:09:36;;;;;;;34.33;18.38;;;;;;;-4.70;100.00;102248.44;5064485;28;20078;-70
2023/01/23 05:12:02;;;;;;;36.97;18.67;;;;;;;-4.73;100.00;102252.31;5045980;28;20499;-70
2023/01/23 05:14:28;;;;;;;38.30;19.25;;;;;;;-4.71;100.00;102250.28;5047097;28;20024;-70
2023/01/23 05:16:53;;;;;;;42.20;18.98;;;;;;;-4.74;100.00;102256.84;5099605;28;20078;-70
2023/01/23 05:19:19;;;;;;;41.92;18.60;;;;;;;-4.76;100.00;102250.75;5085679;28;20028;-70
2023/01/23 05:21:44;;;;;;;35.67;18.60;;;;;;;-4.74;100.00;102262.28;5076179;28;20024;-70
2023/01/23 05:24:10;;;;;;;42.85;19.90;;;;;;;-4.78;100.00;102257.31;5045631;28;20039;-70
2023/01/23 05:26:35;;;;;;;40.22;19.40;;;;;;;-4.79;100.00;102258.31;5078128;28;20035;-70
2023/01/23 05:29:01;;;;;;;36.08;19.23;;;;;;;-4.79;100.00;102258.31;5074928;28;20023;-70
2023/01/23 05:31:26;;;;;;;36.13;20.27;;;;;;;-4.80;100.00;102256.63;5032544;28;20028;-70
2023/01/23 05:33:52;;;;;;;38.25;18.95;;;;;;;-4.80;100.00;102253.91;5110016;28;20024;-70
2023/01/23 05:36:17;;;;;;;35.15;17.88;;;;;;;-4.82;100.00;102264.91;5071664;28;20467;-70
2023/01/23 05:38:43;;;;;;;36.58;18.85;;;;;;;-4.80;100.00;102253.91;5054073;28;20048;-70
2023/01/23 05:41:08;;;;;;;43.13;20.55;;;;;;;-4.80;100.00;102253.91;5048924;28;20020;-70
2023/01/23 05:43:34;;;;;;;37.85;19.05;;;;;;;-4.78;100.00;102249.19;5074753;28;20031;-70
2023/01/23 05:46:02;;;;;;;36.72;19.00;;;;;;;-4.77;100.00;102257.16;5062488;28;20040;-70
2023/01/23 05:48:28;;;;;;;35.75;19.02;;;;;;;-4.76;100.00;102261.59;5078101;28;20028;-70
2023/01/23 05:50:53;;;;;;;34.83;18.92;;;;;;;-4.76;100.00;102264.31;5091710;28;20043;-70
2023/01/23 05:53:18;;;;;;;34.83;18.98;;;;;;;-4.73;100.00;102265.88;5108411;28;20035;-70
2023/01/23 05:55:44;;;;;;;40.35;19.17;;;;;;;-4.70;100.00;102270.13;5081577;28;20028;-70
2023/01/23 05:58:09;;;;;;;38.70;18.48;;;;;;;-4.70;100.00;102267.44;5103511;28;20024;-70
2023/01/23 06:00:35;;;;;;;45.90;22.33;;;;;;;-4.69;100.00;102264.53;5098010;28;20043;-70
2023/01/23 06:03:00;;;;;;;42.25;20.88;;;;;;;-4.67;100.00;102262.53;5081033;28;20085;-70
2023/01/23 06:05:26;;;;;;;47.20;22.90;;;;;;;-4.67;100.00;102269.81;5070713;28;20070;-70
2023/01/23 06:07:51;;;;;;;44.13;20.30;;;;;;;-4.64;100.00;102273.09;5088320;28;20059;-72
2023/01/23 06:10:17;;;;;;;44.95;20.80;;;;;;;-4.59;100.00;102272.63;5074421;28;20365;-72
2023/01/23 06:12:42;;;;;;;41.22;22.05;;;;;;;-4.62;100.00;102275.66;5077799;28;20032;-72
2023/01/23 06:15:08;;;;;;;39.17;21.15;;;;;;;-4.61;100.00;102261.09;5096051;28;20512;-72
2023/01/23 06:17:34;;;;;;;37.92;19.83;;;;;;;-4.60;100.00;102265.50;5087888;28;20035;-72
2023/01/23 06:19:59;;;;;;;38.15;20.00;;;;;;;-4.57;100.00;102271.50;5091394;28;20032;-72
2023/01/23 06:22:25;;;;;;;36.42;18.98;;;;;;;-4.58;100.00;102267.06;5098860;28;20035;-72
2023/01/23 06:24:51;;;;;;;41.92;20.70;;;;;;;-4.58;100.00;102267.06;5090786;28;20024;-70
2023/01/23 06:27:17;;;;;;;38.92;19.33;;;;;;;-4.59;100.00;102261.78;5089619;28;20031;-70
2023/01/23 06:29:42;;;;;;;38.95;19.52;;;;;;;-4.59;100.00;102259.09;5076159;28;20054;-70
2023/01/23 06:32:08;;;;;;;38.40;19.55;;;;;;;-4.58;100.00;102260.78;5061041;28;20024;-70
2023/01/23 06:34:33;;;;;;;58.35;26.55;;;;;;;-4.58;100.00;102255.34;5072809;28;20495;-70
2023/01/23 06:36:59;;;;;;;61.40;27.27;;;;;;;-4.59;100.00;102264.50;5077308;28;20079;-70
2023/01/23 06:39:24;;;;;;;51.70;26.92;;;;;;;-4.61;100.00;102267.34;5060335;28;20032;-69
2023/01/23 06:41:50;;;;;;;56.67;28.88;;;;;;;-4.58;100.00;102266.19;5080802;28;20035;-70
2023/01/23 06:44:15;;;;;;;63.53;30.00;;;;;;;-4.56;100.00;102267.75;5078478;28;20518;-70
2023/01/23 06:46:41;;;;;;;64.07;31.85;;;;;;;-4.60;100.00;102260.06;5039884;28;20415;-70
2023/01/23 06:49:06;;;;;;;65.38;31.55;;;;;;;-4.62;100.00;102265.66;5061137;28;20031;-70
2023/01/23 06:51:32;;;;;;;64.43;30.85;;;;;;;-4.56;100.00;102261.50;5069386;28;20028;-69
2023/01/23 06:53:57;;;;;;;58.65;30.30;;;;;;;-4.61;100.00;102269.22;5057150;28;20024;-70
2023/01/23 06:56:23;;;;;;;61.95;29.52;;;;;;;-4.62;100.00;102268.38;5043201;28;20721;-70
2023/01/23 06:58:48;;;;;;;59.03;28.73;;;;;;;-4.65;100.00;102262.38;5075844;28;20107;-70
2023/01/23 07:01:15;;;;;;;55.38;27.52;;;;;;;-4.68;100.00;102255.44;5073641;28;20579;-69
2023/01/23 07:03:43;;;;;;;63.20;30.00;;;;;;;-4.68;100.00;102265.38;5061675;28;20032;-70
2023/01/23 07:06:10;;;;;;;55.40;27.95;;;;;;;-4.67;100.00;102267.13;5084626;28;20035;-70
2023/01/23 07:08:35;;;;;;;51.92;26.58;;;;;;;-4.70;100.00;102260.13;5093914;28;20145;-70
2023/01/23 07:11:01;;;;;;;61.47;27.88;;;;;;;-4.68;100.00;102262.69;5070506;28;20032;-69
2023/01/23 07:13:27;;;;;;;48.40;24.88;;;;;;;-4.66;100.00;102261.53;5077115;28;20043;-69
2023/01/23 07:15:52;;;;;;;50.25;25.17;;;;;;;-4.64;100.00;102269.53;5057113;28;20601;-69
2023/01/23 07:18:18;;;;;;;45.78;23.83;;;;;;;-4.61;100.00;102274.63;5083534;28;20035;-70
2023/01/23 07:20:44;;;;;;;51.70;23.40;;;;;;;-4.65;100.00;102273.22;5051993;28;20047;-70
2023/01/23 07:23:09;;;;;;;43.35;22.70;;;;;;;-4.64;100.00;102272.22;5066860;28;20031;-69
2023/01/23 07:25:35;;;;;;;44.45;22.02;;;;;;;-4.62;100.00;102278.38;5086297;28;20028;-69
2023/01/23 07:28:00;;;;;;;39.22;20.20;;;;;;;-4.62;100.00;102272.94;5058097;28;20450;-70
2023/01/23 07:30:26;;;;;;;39.58;21.50;;;;;;;-4.58;100.00;102267.06;5060657;28;20032;-69
2023/01/23 07:32:52;;;;;;;43.67;21.08;;;;;;;-4.64;100.00;102270.38;5060414;28;20039;-69
2023/01/23 07:35:17;;;;;;;45.13;21.83;;;;;;;-4.65;100.00;102271.38;5072379;28;20518;-70
2023/01/23 07:37:43;;;;;;;41.97;21.05;;;;;;;-4.63;100.00;102269.34;5095320;28;20048;-70
2023/01/23 07:40:09;;;;;;;45.30;23.48;;;;;;;-4.65;100.00;102275.94;5063368;28;20036;-70
2023/01/23 07:42:34;;;;;;;41.33;22.65;;;;;;;-4.65;100.00;102276.81;5080133;28;20027;-69
2023/01/23 07:45:00;;;;;;;48.67;24.60;;;;;;;-4.62;100.00;102281.06;5047191;28;20038;-70
2023/01/23 07:47:25;;;;;;;46.05;23.38;;;;;;;-4.64;100.00;102277.66;5075437;28;20024;-70
2023/01/23 07:49:51;;;;;;;48.63;23.55;;;;;;;-4.69;100.00;102280.81;5043645;28;20020;-69
2023/01/23 07:52:16;;;;;;;52.45;25.48;;;;;;;-4.69;100.00;102288.09;5065185;28;20039;-70
2023/01/23 07:54:42;;;;;;;53.17;25.30;;;;;;;-4.67;100.00;102283.38;5044902;28;20028;-70
2023/01/23 07:57:07;;;;;;;49.40;24.42;;;;;;;-4.68;100.00;102276.22;5091191;28;20031;-69
2023/01/23 07:59:32;;;;;;;54.28;26.25;;;;;;;-4.67;100.00;102281.53;5078219;28;20028;-70
2023/01/23 08:01:58;;;;;;;50.28;26.02;;;;;;;-4.73;100.00;102285.69;5080555;28;20032;-70
2023/01/23 08:04:23;;;;;;;56.17;27.58;;;;;;;-4.74;100.00;102283.97;5066499;28;20512;-69
2023/01/23 08:06:49;;;;;;;56.38;26.90;;;;;;;-4.66;100.00;102287.78;5084591;28;20373;-69
2023/01/23 08:09:14;;;;;;;56.10;27.45;;;;;;;-4.63;100.00;102280.19;5070774;28;20031;-69
2023/01/23 08:11:40;;;;;;;58.67;28.90;;;;;;;-4.69;100.00;102280.81;5079344;28;20077;-70
2023/01/23 08:14:05;;;;;;;62.85;28.05;;;;;;;-4.64;100.00;102283.94;5076601;28;20050;-69
2023/01/23 08:16:31;;;;;;;53.83;26.70;;;;;;;-4.66;100.00;102285.06;5047674;28;20024;-69
2023/01/23 08:18:57;;;;;;;52.70;25.15;;;;;;;-4.66;100.00;102290.50;5097010;28;20480;-70
2023/01/23 08:21:22;;;;;;;57.15;25.45;;;;;;;-4.62;100.00;102295.47;5084162;28;20024;-69
2023/01/23 08:23:48;;;;;;;54.63;25.02;;;;;;;-4.56;100.00;102296.75;5052667;28;20032;-70
2023/01/23 08:26:14;;;;;;;54.35;24.83;;;;;;;-4.53;100.00;102296.44;5083621;28;20035;-70
2023/01/23 08:28:41;;;;;;;58.33;26.67;;;;;;;-4.43;100.00;102308.09;5083359;28;20028;-69
2023/01/23 08:31:07;;;;;;;55.50;25.90;;;;;;;-4.39;100.00;102308.63;5087230;28;20031;-70
2023/01/23 08:33:34;;;;;;;51.85;24.90;;;;;;;-4.31;100.00;102309.56;5100227;28;20030;-70
2023/01/23 08:35:59;;;;;;;49.08;24.60;;;;;;;-4.24;100.00;102301.66;5059322;28;20043;-70
2023/01/23 08:38:25;;;;;;;55.05;25.20;;;;;;;-4.15;100.00;102308.03;5079414;28;20044;-70
2023/01/23 08:40:51;;;;;;;63.35;29.55;;;;;;;-4.05;100.00;102297.97;5079527;28;20024;-70
2023/01/23 08:43:17;;;;;;;66.70;31.52;;;;;;;-3.95;100.00;102306.91;5056828;28;20023;-69
2023/01/23 08:45:47;;;;;;;67.22;31.00;;;;;;;-3.86;100.00;102305.97;5082893;28;20027;-69
2023/01/23 08:48:12;;;;;;;60.90;32.08;;;;;;;-3.71;100.00;102308.13;5063049;28;20024;-69
2023/01/23 08:50:38;;;;;;;58.30;28.27;;;;;;;-3.65;100.00;102307.50;5101214;28;20031;-70
2023/01/23 08:53:03;;;;;;;58.17;30.67;;;;;;;-3.57;100.00;102315.72;5079404;28;20050;-70
2023/01/23 08:55:29;;;;;;;53.50;25.00;;;;;;;-3.44;100.00;102304.47;5078323;28;20066;-70
2023/01/23 08:57:55;;;;;;;52.30;25.33;;;;;;;-3.39;100.00;102304.84;5079147;28;20069;-70
2023/01/23 09:00:21;;;;;;;49.35;24.50;;;;;;;-3.29;100.00;102302.00;5096084;28;20024;-70
2023/01/23 09:02:46;;;;;;;52.78;24.38;;;;;;;-3.19;100.00;102310.94;5074333;28;20035;-70
2023/01/23 09:05:12;;;;;;;46.25;22.88;;;;;;;-3.09;100.00;102311.69;5066018;28;20027;-70
2023/01/23 09:07:38;;;;;;;50.45;23.30;;;;;;;-2.97;100.00;102313.09;5087786;28;20024;-70
2023/01/23 09:10:04;;;;;;;50.08;24.63;;;;;;;-2.83;100.00;102305.38;5060703;28;20070;-70
2023/01/23 09:12:31;;;;;;;51.90;24.63;;;;;;;-2.72;100.00;102310.53;5061553;28;20443;-70
2023/01/23 09:14:57;;;;;;;49.15;24.42;;;;;;;-2.62;100.00;102313.97;5051587;28;20110;-70
2023/01/23 09:17:22;;;;;;;49.38;24.75;;;;;;;-2.52;100.00;102309.25;5066104;28;20361;-70
2023/01/23 09:19:48;;;;;;;50.22;24.73;;;;;;;-2.41;100.00;102309.97;5052376;28;20051;-70
2023/01/23 09:22:14;;;;;;;53.85;25.90;;;;;;;-2.29;100.00;102319.53;5071323;28;20027;-70
2023/01/23 09:24:40;;;;;;;51.40;25.30;;;;;;;-2.16;100.00;102316.34;5065282;28;20039;-69
2023/01/23 09:27:06;;;;;;;48.53;23.85;;;;;;;-1.99;100.00;102322.69;5073213;28;20031;-69
2023/01/23 09:29:32;;;;;;;54.60;26.33;;;;;;;-1.92;100.00;102318.25;5048090;28;20036;-70
2023/01/23 09:31:57;;;;;;;51.58;26.48;;;;;;;-1.83;100.00;102311.81;5072275;28;20033;-70
2023/01/23 09:34:23;;;;;;;56.67;26.55;;;;;;;-1.71;100.00;102324.09;5070055;28;20503;-70
2023/01/23 09:36:48;;;;;;;55.05;25.92;;;;;;;-1.61;100.00;102323.94;5034608;28;20119;-70
2023/01/23 09:39:14;;;;;;;57.25;28.13;;;;;;;-1.52;100.00;102319.34;5078508;28;20043;-70
2023/01/23 09:41:39;;;;;;;57.00;27.80;;;;;;;-1.44;100.00;102324.78;5086117;28;20036;-70
2023/01/23 09:44:14;;;;;;;51.15;27.52;;;;;;;-1.30;100.00;102324.09;5052911;28;20020;-70
2023/01/23 09:46:54;;;;;;;52.42;25.70;;;;;;;-1.23;100.00;102316.94;5075150;28;20071;-70
2023/01/23 09:49:40;;;;;;;49.33;25.50;;;;;;;-1.12;100.00;102315.72;5077986;28;20024;-70
2023/01/23 09:52:16;;;;;;;55.58;25.83;;;;;;;-1.12;100.00;102322.03;5075985;28;20028;-70
2023/01/23 09:54:49;;;;;;;54.33;26.70;;;;;;;-0.99;100.00;102323.38;5082063;28;20034;-70
2023/01/23 09:57:20;;;;;;;50.15;25.67;;;;;;;-1.00;100.00;102332.59;5082682;28;20035;-70
2023/01/23 09:59:50;;;;;;;54.42;26.63;;;;;;;-1.02;100.00;102330.03;5082263;28;20035;-70
2023/01/23 10:02:19;;;;;;;58.92;28.73;;;;;;;-1.00;100.00;102332.59;5082033;28;20034;-70
2023/01/23 10:04:48;;;;;;;58.28;30.63;;;;;;;-0.98;100.00;102327.81;5087691;28;20023;-70
2023/01/23 10:07:32;;;;;;;54.20;26.80;;;;;;;-0.94;100.00;102331.91;5081681;28;20023;-70
2023/01/23 10:10:16;;;;;;;64.80;30.23;;;;;;;-0.93;100.00;102331.72;5081153;28;20050;-70
2023/01/23 10:12:41;;;;;;;59.58;28.38;;;;;;;-0.87;100.00;102332.91;5078556;28;20105;-70
2023/01/23 10:15:33;;;;;;;54.10;28.80;;;;;;;-0.81;100.00;102336.81;5081083;28;20535;-70
2023/01/23 10:18:07;;;;;;;62.55;29.45;;;;;;;-0.76;100.00;102329.78;5088193;28;20411;-70
2023/01/23 10:20:46;;;;;;;56.20;28.95;;;;;;;-0.74;100.00;102338.66;5079276;28;20032;-70
2023/01/23 10:23:29;;;;;;;52.45;26.58;;;;;;;-0.69;100.00;102328.09;5066035;28;20406;-70
2023/01/23 10:25:54;;;;;;;57.88;29.15;;;;;;;-0.65;100.00;102330.47;5102689;28;20032;-70
2023/01/23 10:28:37;;;;;;;63.38;30.20;;;;;;;-0.62;100.00;102336.41;5081121;28;20396;-70
2023/01/23 10:31:34;;;;;;;61.15;30.45;;;;;;;-0.62;100.00;102327.38;5069962;28;20500;-70
2023/01/23 10:34:11;;;;;;;57.85;28.63;;;;;;;-0.57;100.00;102335.88;5097573;28;20024;-70
2023/01/23 10:36:54;;;;;;;58.33;29.23;;;;;;;-0.50;100.00;102336.91;5085554;28;20038;-71
2023/01/23 10:39:28;;;;;;;57.08;28.38;;;;;;;-0.42;100.00;102336.84;5113579;28;20070;-70
2023/01/23 10:41:53;;;;;;;61.08;30.20;;;;;;;-0.37;100.00;102334.44;5051802;28;20111;-70
2023/01/23 10:44:19;;;;;;;57.63;27.17;;;;;;;-0.30;100.00;102338.16;5064308;28;20028;-70
2023/01/23 10:46:49;;;;;;;56.00;28.02;;;;;;;-0.19;100.00;102333.34;5069817;28;20032;-70
2023/01/23 10:49:36;;;;;;;58.05;27.02;;;;;;;-0.15;100.00;102340.16;5090838;28;20135;-70
2023/01/23 10:52:02;;;;;;;54.13;28.38;;;;;;;-0.06;100.00;102339.06;5077114;28;20024;-70
2023/01/23 10:54:28;;;;;;;58.60;28.52;;;;;;;0.02;100.00;102341.75;5113853;28;20080;-70
2023/01/23 10:56:58;;;;;;;55.65;27.92;;;;;;;0.08;100.00;102335.56;5060613;28;20040;-70
2023/01/23 10:59:38;;;;;;;57.17;27.80;;;;;;;0.10;100.00;102328.06;5067491;28;20032;-70
2023/01/23 11:02:30;;;;;;;53.95;27.48;;;;;;;0.19;100.00;102324.22;5077235;28;20032;-70
2023/01/23 11:04:56;;;;;;;60.42;29.38;;;;;;;0.21;100.00;102313.13;5072670;28;20040;-70
2023/01/23 11:07:29;;;;;;;57.53;28.98;;;;;;;0.22;100.00;102315.69;5060616;28;20039;-70
2023/01/23 11:10:03;;;;;;;59.67;29.10;;;;;;;0.27;100.00;102315.13;5061602;28;20072;-70